Time;durP1;ratioP1;P1;durP2;ratioP2;P2;SDS_P1;SDS_P2;PMS_P1;PMS_P2;Temp;Humidity;BMP_temperature;BMP_pressure;BME280_temperature;BME280_humidity;BME280_pressure;Samples;Min_cycle;Max_cycle;Signal;HPM_P1;HPM_P2
2022/11/27 00:01:31;;;;;;;29.52;20.05;;;;;;;2.51;96.36;100808.66;1774678;80;20887;-72
2022/11/27 00:03:57;;;;;;;31.23;20.20;;;;;;;2.48;96.43;100808.66;1780654;78;20942;-73
2022/11/27 00:06:26;;;;;;;30.68;19.30;;;;;;;2.45;96.33;100814.66;1757978;81;20935;-73
2022/11/27 00:08:55;;;;;;;26.15;18.87;;;;;;;2.44;96.47;100816.37;1761953;79;21053;-72
2022/11/27 00:11:24;;;;;;;28.65;19.75;;;;;;;2.49;96.28;100811.66;1801605;78;20938;-73
2022/11/27 00:13:51;;;;;;;27.25;19.30;;;;;;;2.50;96.25;100808.23;1767280;79;20945;-72
2022/11/27 00:16:20;;;;;;;29.98;20.40;;;;;;;2.51;96.22;100808.66;1777591;79;21032;-72
2022/11/27 00:18:47;;;;;;;28.92;19.12;;;;;;;2.49;96.17;100810.36;1772334;79;21488;-73
2022/11/27 00:21:21;;;;;;;25.55;17.37;;;;;;;2.50;96.19;100812.11;1793880;78;21051;-73
2022/11/27 00:23:47;;;;;;;29.82;18.70;;;;;;;2.46;96.24;100808.63;1788162;78;20914;-73
2022/11/27 00:26:15;;;;;;;29.07;19.27;;;;;;;2.45;96.39;100807.78;1783216;79;20926;-73
2022/11/27 00:28:42;;;;;;;28.87;18.23;;;;;;;2.49;96.35;100811.66;1779886;79;20977;-73
2022/11/27 00:31:16;;;;;;;29.42;18.80;;;;;;;2.40;96.26;100782.41;1778180;79;26391;-72
2022/11/27 00:33:43;;;;;;;32.15;18.40;;;;;;;2.49;96.15;100805.20;1757036;79;21467;-73
2022/11/27 00:36:12;;;;;;;27.62;19.17;;;;;;;2.49;96.28;100802.20;1789007;79;21530;-73
2022/11/27 00:38:39;;;;;;;23.07;17.15;;;;;;;2.53;96.34;100812.11;1780299;79;20886;-73
2022/11/27 00:41:19;;;;;;;27.87;18.23;;;;;;;2.49;96.21;100810.36;1788624;79;21470;-73
2022/11/27 00:43:46;;;;;;;26.33;17.00;;;;;;;2.50;96.32;100806.95;1772947;79;20984;-73
2022/11/27 00:46:16;;;;;;;24.47;17.95;;;;;;;2.52;96.45;100810.37;1774570;79;21500;-73
2022/11/27 00:48:44;;;;;;;25.72;17.55;;;;;;;2.56;96.52;100806.96;1763021;80;20938;-73
2022/11/27 00:51:15;;;;;;;25.35;17.30;;;;;;;2.58;96.57;100803.53;1757767;79;20941;-72
2022/11/27 00:53:42;;;;;;;24.12;16.75;;;;;;;2.58;96.47;100806.11;1803602;78;21405;-73
2022/11/27 00:56:27;;;;;;;25.92;17.42;;;;;;;2.62;96.55;100805.69;1767070;79;25717;-73
2022/11/27 00:58:54;;;;;;;25.85;17.77;;;;;;;2.62;96.50;100800.53;1773628;79;21068;-73
2022/11/27 01:01:28;;;;;;;24.60;16.40;;;;;;;2.62;96.47;100806.97;1785459;78;21035;-73
2022/11/27 01:03:58;;;;;;;24.72;16.52;;;;;;;2.62;96.49;100799.23;1768574;78;20914;-73
2022/11/27 01:06:26;;;;;;;24.98;16.80;;;;;;;2.62;96.45;100800.53;1782721;79;20993;-73
2022/11/27 01:08:53;;;;;;;23.25;16.37;;;;;;;2.62;96.49;100797.95;1762895;80;20922;-73
2022/11/27 01:11:25;;;;;;;24.27;15.70;;;;;;;2.62;96.48;100806.97;1763161;79;21104;-73
2022/11/27 01:13:52;;;;;;;28.15;17.55;;;;;;;2.60;96.42;100791.91;1792045;79;21024;-73
2022/11/27 01:16:22;;;;;;;25.20;16.82;;;;;;;2.58;96.43;100800.09;1791631;78;20893;-73
2022/11/27 01:18:50;;;;;;;28.07;16.90;;;;;;;2.57;96.39;100802.22;1786235;79;20906;-73
2022/11/27 01:21:20;;;;;;;23.22;16.10;;;;;;;2.60;96.65;100804.81;1780394;78;20950;-72
2022/11/27 01:23:48;;;;;;;23.80;15.78;;;;;;;2.61;96.52;100811.27;1790103;78;21091;-73
2022/11/27 01:26:17;;;;;;;24.87;15.15;;;;;;;2.62;96.67;100817.28;1755408;81;20896;-73
2022/11/27 01:28:44;;;;;;;24.12;16.35;;;;;;;2.63;96.75;100808.69;1773542;79;20882;-73
2022/11/27 01:31:18;;;;;;;23.18;16.05;;;;;;;2.64;96.72;100806.13;1772509;79;20961;-73
2022/11/27 01:33:46;;;;;;;28.85;15.40;;;;;;;2.67;96.68;100813.01;1789273;79;20886;-73
2022/11/27 01:36:15;;;;;;;21.27;14.23;;;;;;;2.69;96.69;100811.30;1785088;79;21114;-73
2022/11/27 01:38:42;;;;;;;19.65;14.45;;;;;;;2.70;96.66;100805.27;1774200;79;20968;-73
2022/11/27 01:41:22;;;;;;;22.25;15.40;;;;;;;2.71;96.78;100804.84;1791346;78;21443;-72
2022/11/27 01:43:54;;;;;;;21.80;14.60;;;;;;;2.69;96.64;100806.14;1779942;79;20942;-73
2022/11/27 01:46:45;;;;;;;21.62;15.93;;;;;;;2.68;96.66;100804.40;1758377;81;20910;-72
2022/11/27 01:49:38;;;;;;;21.97;15.08;;;;;;;2.68;96.71;100796.66;1755203;80;21420;-72
2022/11/27 01:52:25;;;;;;;21.85;14.03;;;;;;;2.65;96.64;100805.69;1735205;81;20956;-72
2022/11/27 01:55:03;;;;;;;22.10;13.43;;;;;;;2.63;96.65;100806.10;1742680;81;20933;-73
2022/11/27 01:57:37;;;;;;;18.95;13.53;;;;;;;2.63;96.77;100806.10;1750470;81;20910;-73
2022/11/27 02:00:08;;;;;;;18.50;14.13;;;;;;;2.66;96.61;100806.11;1755395;81;21017;-73
2022/11/27 02:02:35;;;;;;;17.62;12.85;;;;;;;2.68;96.63;100809.56;1765657;79;21717;-73
2022/11/27 02:05:01;;;;;;;19.35;13.55;;;;;;;2.70;96.69;100805.27;1754691;81;21042;-73
2022/11/27 02:07:28;;;;;;;19.37;13.00;;;;;;;2.68;96.70;100809.56;1729684;82;21396;-73
2022/11/27 02:09:55;;;;;;;20.47;14.37;;;;;;;2.68;96.72;100803.11;1757210;81;20965;-73
2022/11/27 02:12:56;;;;;;;20.40;14.37;;;;;;;2.68;96.64;100801.82;1755759;81;20974;-73
2022/11/27 02:15:33;;;;;;;22.25;15.35;;;;;;;2.67;96.63;100803.55;1768460;81;21806;-73
2022/11/27 02:18:17;;;;;;;25.97;17.73;;;;;;;2.62;96.84;100798.80;1758840;79;20977;-73
2022/11/27 02:21:00;;;;;;;24.32;15.88;;;;;;;2.63;97.05;100803.52;1687330;83;21516;-73
2022/11/27 02:23:56;;;;;;;24.10;16.85;;;;;;;2.65;97.15;100804.39;1690350;83;21514;-73
2022/11/27 02:26:49;;;;;;;25.82;17.82;;;;;;;2.74;97.00;100805.70;1697386;83;21551;-73
2022/11/27 02:29:26;;;;;;;19.37;14.25;;;;;;;2.72;97.26;100803.97;1691976;84;21245;-73
2022/11/27 02:32:03;;;;;;;24.92;15.75;;;;;;;2.72;97.15;100813.88;1690326;83;20975;-73
2022/11/27 02:35:07;;;;;;;23.30;15.68;;;;;;;2.76;96.90;100815.59;1705565;83;21682;-72
2022/11/27 02:37:47;;;;;;;23.87;14.95;;;;;;;2.67;96.90;100818.16;1695023;83;20997;-73
2022/11/27 02:40:43;;;;;;;25.20;16.30;;;;;;;2.68;96.96;100827.61;1695978;83;20959;-73
2022/11/27 02:43:23;;;;;;;25.37;15.32;;;;;;;2.71;97.06;100834.06;1701610;84;21480;-73
2022/11/27 02:45:51;;;;;;;25.55;16.27;;;;;;;2.71;97.12;100826.76;1735741;82;20969;-73
2022/11/27 02:48:26;;;;;;;30.37;16.00;;;;;;;2.67;97.65;100832.34;1748177;82;20919;-73
2022/11/27 02:50:54;;;;;;;33.25;16.97;;;;;;;2.65;98.14;100828.89;1712352;82;20950;-73
2022/11/27 02:53:41;;;;;;;43.80;16.65;;;;;;;2.79;98.22;100819.47;1745959;80;20938;-73
2022/11/27 02:56:12;;;;;;;27.80;15.98;;;;;;;2.77;98.25;100816.45;1730887;82;22810;-73
2022/11/27 02:58:41;;;;;;;50.73;17.70;;;;;;;2.95;97.92;100815.64;1756019;81;21420;-73
2022/11/27 03:01:10;;;;;;;37.65;16.82;;;;;;;3.01;97.62;100818.22;1784946;78;20909;-73
2022/11/27 03:03:42;;;;;;;41.98;17.87;;;;;;;3.07;97.42;100820.80;1749165;80;21049;-73
2022/11/27 03:06:13;;;;;;;36.30;17.55;;;;;;;3.05;97.19;100819.94;1746040;81;21021;-73
2022/11/27 03:09:06;;;;;;;55.83;22.13;;;;;;;3.06;97.21;100819.09;1764098;81;21040;-73
2022/11/27 03:11:32;;;;;;;38.02;21.25;;;;;;;3.10;97.19;100823.38;1778796;80;21439;-73
2022/11/27 03:14:04;;;;;;;62.53;21.27;;;;;;;3.16;97.25;100817.38;1768669;80;20911;-72
2022/11/27 03:16:51;;;;;;;50.03;20.70;;;;;;;3.16;97.27;100819.52;1752517;80;21625;-73
2022/11/27 03:19:35;;;;;;;41.33;19.77;;;;;;;3.20;97.14;100814.80;1780275;78;20944;-73
2022/11/27 03:22:03;;;;;;;68.80;19.27;;;;;;;3.17;97.06;100819.97;1784378;80;20903;-74
2022/11/27 03:24:32;;;;;;;41.18;17.57;;;;;;;3.13;97.31;100819.52;1785472;78;20942;-73
2022/11/27 03:26:59;;;;;;;58.00;18.70;;;;;;;3.13;97.28;100825.97;1757822;81;21468;-74
2022/11/27 03:29:37;;;;;;;51.70;19.32;;;;;;;3.19;96.86;100825.97;1743028;80;20958;-73
2022/11/27 03:32:05;;;;;;;55.92;16.85;;;;;;;3.22;97.02;100815.67;1766205;79;20946;-73
2022/11/27 03:34:32;;;;;;;;;;;;;;;3.23;96.98;100804.47;1741285;80;21041;-73
2022/11/27 03:36:58;;;;;;;48.65;20.97;;;;;;;3.26;97.14;100812.22;1749564;79;20107;-73
2022/11/27 03:39:26;;;;;;;63.70;20.15;;;;;;;3.25;97.21;100812.20;1768542;80;20936;-73
2022/11/27 03:42:25;;;;;;;54.63;20.05;;;;;;;3.27;97.48;100808.77;1760205;80;20938;-73
2022/11/27 03:45:09;;;;;;;68.57;20.60;;;;;;;3.24;97.64;100811.34;1782112;80;20946;-72
2022/11/27 03:47:50;;;;;;;66.85;20.60;;;;;;;3.31;97.80;100807.92;1799398;79;21113;-71
2022/11/27 03:50:33;;;;;;;63.38;20.02;;;;;;;3.25;97.63;100804.05;1792219;79;20885;-71
2022/11/27 03:53:25;;;;;;;74.40;18.90;;;;;;;3.30;97.68;100807.91;1771474;79;20929;-71
2022/11/27 03:56:23;;;;;;;64.27;18.60;;;;;;;3.28;97.63;100813.09;1780342;79;20971;-71
2022/11/27 03:59:19;;;;;;;70.97;18.82;;;;;;;3.27;97.91;100813.92;1770975;79;20900;-71
2022/11/27 04:01:46;;;;;;;86.65;18.20;;;;;;;3.24;97.93;100815.22;1763094;79;21520;-71
2022/11/27 04:04:13;;;;;;;;;;;;;;;3.26;98.17;100812.22;1787973;78;21445;-71
2022/11/27 04:06:39;;;;;;;47.78;17.40;;;;;;;3.29;97.92;100812.22;1789791;79;20179;-71
2022/11/27 04:09:06;;;;;;;55.73;17.62;;;;;;;3.27;98.08;100816.50;1776322;78;20891;-71
2022/11/27 04:11:33;;;;;;;71.57;18.50;;;;;;;3.31;98.04;100811.79;1766766;79;20954;-71
2022/11/27 04:13:59;;;;;;;69.85;20.15;;;;;;;3.35;97.93;100816.52;1779401;80;21169;-71
2022/11/27 04:16:26;;;;;;;86.63;20.65;;;;;;;3.35;97.74;100814.78;1778202;78;20905;-71
2022/11/27 04:18:52;;;;;;;52.62;20.57;;;;;;;3.34;97.66;100809.20;1791063;78;20901;-71
2022/11/27 04:21:19;;;;;;;66.15;18.73;;;;;;;3.39;97.89;100807.03;1800940;78;20958;-71
2022/11/27 04:23:46;;;;;;;110.40;19.65;;;;;;;3.39;97.79;100801.88;1799634;79;21421;-71
2022/11/27 04:26:12;;;;;;;44.05;19.50;;;;;;;3.39;97.88;100805.75;1788512;78;21244;-71
2022/11/27 04:28:39;;;;;;;62.55;20.43;;;;;;;3.43;97.87;100806.19;1795822;78;20898;-71
2022/11/27 04:31:05;;;;;;;96.10;20.57;;;;;;;3.36;98.14;100801.04;1794024;78;21495;-71
2022/11/27 04:33:32;;;;;;;63.40;19.95;;;;;;;3.35;98.42;100792.84;1791867;79;21001;-71
2022/11/27 04:35:59;;;;;;;66.05;21.27;;;;;;;3.34;98.43;100789.84;1781799;79;20977;-71
2022/11/27 04:38:26;;;;;;;103.43;18.33;;;;;;;3.35;98.40;100790.70;1788753;79;21065;-71
2022/11/27 04:40:52;;;;;;;39.18;18.10;;;;;;;3.31;98.09;100789.84;1788301;78;20934;-71
2022/11/27 04:43:19;;;;;;;55.90;18.60;;;;;;;3.39;97.99;100796.71;1782446;78;21055;-71
2022/11/27 04:45:46;;;;;;;59.88;17.80;;;;;;;3.44;97.84;100793.70;1798937;78;21430;-71
2022/11/27 04:48:12;;;;;;;53.40;18.60;;;;;;;3.45;97.54;100796.73;1797577;78;20917;-71
2022/11/27 04:50:39;;;;;;;70.87;18.35;;;;;;;3.49;97.59;100795.85;1797567;78;20959;-71
2022/11/27 04:53:06;;;;;;;50.87;18.30;;;;;;;3.50;97.49;100797.56;1776694;78;20874;-71
2022/11/27 04:55:33;;;;;;;41.88;17.77;;;;;;;3.51;97.69;100802.73;1806122;78;20942;-71
2022/11/27 04:58:00;;;;;;;60.48;17.32;;;;;;;3.54;97.68;100807.04;1792819;78;20891;-71
2022/11/27 05:00:26;;;;;;;64.45;20.32;;;;;;;3.56;97.55;100807.91;1791102;79;20862;-72
2022/11/27 05:02:53;;;;;;;67.23;18.03;;;;;;;3.56;97.57;100802.74;1800497;78;21443;-71
2022/11/27 05:05:20;;;;;;;55.77;19.77;;;;;;;3.56;97.47;100810.49;1791798;78;21482;-72
2022/11/27 05:07:47;;;;;;;50.77;18.97;;;;;;;3.60;97.67;100803.16;1783422;78;21254;-71
2022/11/27 05:10:13;;;;;;;70.28;20.10;;;;;;;3.61;97.70;100803.57;1800186;78;21388;-71
2022/11/27 05:12:40;;;;;;;55.78;19.85;;;;;;;3.64;97.68;100798.43;1767572;79;20919;-71
2022/11/27 05:15:08;;;;;;;50.50;19.25;;;;;;;3.56;97.48;100797.58;1783224;79;21044;-71
2022/11/27 05:17:35;;;;;;;49.98;19.70;;;;;;;3.58;97.57;100798.41;1796252;78;21653;-71
2022/11/27 05:20:01;;;;;;;34.98;17.30;;;;;;;3.58;97.48;100794.54;1767147;79;21546;-71
2022/11/27 05:22:28;;;;;;;80.67;20.83;;;;;;;3.56;97.37;100795.00;1772994;81;20907;-72
2022/11/27 05:24:55;;;;;;;74.00;17.95;;;;;;;3.58;97.59;100790.66;1795642;78;21602;-71
2022/11/27 05:27:21;;;;;;;50.38;19.35;;;;;;;3.63;97.66;100784.21;1780552;78;21479;-71
2022/11/27 05:29:48;;;;;;;55.78;18.85;;;;;;;3.63;97.64;100788.09;1792100;78;20953;-71
2022/11/27 05:32:14;;;;;;;98.50;19.53;;;;;;;3.63;97.65;100783.77;1785535;79;20941;-72
2022/11/27 05:34:41;;;;;;;73.65;18.35;;;;;;;3.62;97.54;100787.23;1785622;79;21463;-71
2022/11/27 05:37:08;;;;;;;70.20;19.10;;;;;;;3.61;97.36;100777.74;1773342;79;20898;-71
2022/11/27 05:39:35;;;;;;;54.42;17.52;;;;;;;3.59;97.47;100774.33;1801793;78;21099;-71
2022/11/27 05:42:01;;;;;;;101.70;21.12;;;;;;;3.57;97.27;100777.34;1771768;79;20944;-71
2022/11/27 05:44:28;;;;;;;88.60;19.62;;;;;;;3.57;97.47;100774.31;1772940;80;21099;-71
2022/11/27 05:46:56;;;;;;;103.58;20.52;;;;;;;3.59;97.74;100775.63;1760718;81;20899;-71
2022/11/27 05:49:22;;;;;;;70.10;18.92;;;;;;;3.62;97.72;100780.78;1740354;81;20894;-72
2022/11/27 05:51:49;;;;;;;88.80;18.03;;;;;;;3.62;97.64;100778.63;1759621;80;21048;-71
2022/11/27 05:54:15;;;;;;;77.58;20.45;;;;;;;3.53;98.12;100776.92;1755715;81;21620;-71
2022/11/27 05:56:42;;;;;;;44.13;17.23;;;;;;;3.52;98.49;100779.06;1754488;80;20906;-72
2022/11/27 05:59:09;;;;;;;101.40;18.47;;;;;;;3.56;98.18;100771.75;1759310;80;20936;-72
2022/11/27 06:01:36;;;;;;;69.03;18.73;;;;;;;3.53;98.01;100776.92;1759591;79;20925;-72
2022/11/27 06:04:03;;;;;;;80.30;16.37;;;;;;;3.49;98.18;100777.78;1747818;81;21804;-73
2022/11/27 06:06:29;;;;;;;77.83;18.03;;;;;;;3.49;98.47;100782.94;1756733;80;20952;-72
2022/11/27 06:08:56;;;;;;;96.32;18.55;;;;;;;3.50;98.26;100779.48;1751933;80;21001;-73
2022/11/27 06:11:23;;;;;;;66.50;16.80;;;;;;;3.53;98.42;100776.92;1751029;81;21522;-72
2022/11/27 06:13:49;;;;;;;82.17;18.03;;;;;;;3.51;98.27;100776.06;1760021;81;20943;-72
2022/11/27 06:16:19;;;;;;;110.00;17.25;;;;;;;3.49;98.04;100780.36;1769059;80;21024;-73
2022/11/27 06:18:50;;;;;;;93.78;15.78;;;;;;;3.50;98.11;100779.48;1760440;81;20939;-73
2022/11/27 06:21:17;;;;;;;53.02;15.78;;;;;;;3.48;98.01;100781.23;1768582;80;20969;-72
2022/11/27 06:23:44;;;;;;;48.63;16.93;;;;;;;3.45;97.96;100780.80;1744824;81;20933;-73
2022/11/27 06:26:18;;;;;;;75.47;19.85;;;;;;;3.44;97.99;100779.50;1759006;79;20950;-73
2022/11/27 06:28:47;;;;;;;73.30;17.32;;;;;;;3.44;98.19;100782.08;1750374;80;21050;-72
2022/11/27 06:31:17;;;;;;;105.85;16.23;;;;;;;3.47;98.25;100774.33;1752255;80;21417;-72
2022/11/27 06:33:46;;;;;;;70.80;14.75;;;;;;;3.49;98.24;100775.20;1742107;81;20962;-72
2022/11/27 06:36:14;;;;;;;67.82;15.20;;;;;;;3.46;97.82;100775.20;1745799;81;20952;-72
2022/11/27 06:38:41;;;;;;;49.50;13.78;;;;;;;3.48;97.75;100767.03;1770626;81;26539;-73
2022/11/27 06:41:12;;;;;;;139.18;16.27;;;;;;;3.47;97.60;100769.16;1753273;81;21040;-73
2022/11/27 06:43:39;;;;;;;92.15;15.08;;;;;;;3.41;97.34;100771.32;1763508;80;20962;-72
2022/11/27 06:46:08;;;;;;;47.85;13.15;;;;;;;3.40;97.51;100776.51;1760720;79;20938;-72
2022/11/27 06:48:35;;;;;;;114.45;14.73;;;;;;;3.36;97.56;100780.79;1748502;79;20910;-73
2022/11/27 06:51:05;;;;;;;90.97;13.80;;;;;;;3.41;97.77;100785.96;1801607;79;20906;-74
2022/11/27 06:53:36;;;;;;;51.92;13.00;;;;;;;3.45;97.95;100782.53;1788859;78;21204;-72
2022/11/27 06:56:05;;;;;;;78.70;12.80;;;;;;;3.45;97.76;100783.83;1793266;79;20930;-74
2022/11/27 06:58:32;;;;;;;81.57;14.00;;;;;;;3.41;97.97;100784.67;1798945;79;20885;-73
2022/11/27 07:01:01;;;;;;;72.95;13.18;;;;;;;3.41;98.12;100789.83;1798482;79;20958;-73
2022/11/27 07:03:27;;;;;;;82.95;13.98;;;;;;;3.36;98.02;100793.30;1785518;78;21439;-73
2022/11/27 07:05:54;;;;;;;106.15;14.00;;;;;;;3.40;98.25;100790.70;1788857;79;20990;-72
2022/11/27 07:08:21;;;;;;;81.13;13.40;;;;;;;3.42;98.28;100796.70;1791122;79;20898;-72
2022/11/27 07:10:47;;;;;;;53.78;12.05;;;;;;;3.38;97.99;100789.84;1783161;79;20902;-72
2022/11/27 07:13:14;;;;;;;58.45;12.98;;;;;;;3.29;97.74;100788.98;1796042;78;20965;-72
2022/11/27 07:15:41;;;;;;;63.13;12.80;;;;;;;3.19;97.31;100794.14;1769177;79;20952;-72
2022/11/27 07:18:08;;;;;;;82.60;11.60;;;;;;;3.12;97.49;100790.71;1779860;79;21269;-72
2022/11/27 07:20:35;;;;;;;95.07;12.67;;;;;;;3.17;97.76;100791.58;1788467;79;21495;-73
2022/11/27 07:23:01;;;;;;;128.62;12.60;;;;;;;3.20;98.00;100791.57;1800128;78;20918;-72
2022/11/27 07:25:28;;;;;;;115.23;11.93;;;;;;;3.23;98.13;100795.44;1802725;78;20895;-72
2022/11/27 07:27:55;;;;;;;40.63;10.50;;;;;;;3.24;98.07;100790.70;1787742;78;20926;-72
2022/11/27 07:30:22;;;;;;;96.72;11.38;;;;;;;3.22;97.94;100796.72;1796261;78;21110;-72
2022/11/27 07:32:48;;;;;;;94.03;11.95;;;;;;;3.22;97.74;100795.42;1801576;78;20937;-72
2022/11/27 07:35:15;;;;;;;125.33;12.13;;;;;;;3.29;97.65;100794.14;1790229;78;20918;-72
2022/11/27 07:37:43;;;;;;;100.72;11.12;;;;;;;3.24;97.46;100798.44;1803455;78;20905;-72
2022/11/27 07:40:09;;;;;;;101.00;11.48;;;;;;;3.23;97.65;100805.77;1800973;78;21526;-72
2022/11/27 07:42:36;;;;;;;43.83;12.00;;;;;;;3.28;98.00;100809.22;1773422;80;21062;-73
2022/11/27 07:45:03;;;;;;;73.50;12.77;;;;;;;3.33;98.05;100815.64;1773399;79;20884;-72
2022/11/27 07:47:30;;;;;;;93.62;13.20;;;;;;;3.34;97.95;100815.66;1765641;79;21337;-73
2022/11/27 07:49:59;;;;;;;136.28;14.23;;;;;;;3.38;97.94;100820.81;1769488;81;21425;-72
2022/11/27 07:52:26;;;;;;;68.57;12.88;;;;;;;3.45;98.24;100817.39;1782285;79;21465;-72
2022/11/27 07:54:53;;;;;;;107.17;15.60;;;;;;;3.48;98.08;100814.80;1790034;79;21870;-72
2022/11/27 07:57:19;;;;;;;69.65;13.25;;;;;;;3.52;98.47;100810.05;1764993;81;20978;-72
2022/11/27 07:59:46;;;;;;;69.80;14.00;;;;;;;3.64;98.40;100813.92;1771870;79;20890;-72
2022/11/27 08:02:13;;;;;;;125.72;15.25;;;;;;;3.77;98.51;100811.73;1797143;78;21371;-72
2022/11/27 08:04:40;;;;;;;68.78;14.33;;;;;;;3.86;98.38;100809.98;1759888;79;21510;-72
2022/11/27 08:07:06;;;;;;;88.87;13.50;;;;;;;3.96;98.76;100815.57;1797498;78;21872;-72
2022/11/27 08:09:33;;;;;;;128.27;14.10;;;;;;;4.09;98.87;100818.55;1790871;79;21468;-72
2022/11/27 08:11:59;;;;;;;53.98;13.13;;;;;;;4.28;99.02;100817.18;1794584;78;20862;-71
2022/11/27 08:14:27;;;;;;;62.67;13.50;;;;;;;4.43;98.60;100817.13;1796013;78;20885;-71
2022/11/27 08:16:54;;;;;;;63.70;14.47;;;;;;;4.48;98.26;100825.70;1793222;79;20930;-72
2022/11/27 08:19:21;;;;;;;47.97;13.60;;;;;;;4.54;97.71;100823.11;1797180;79;22354;-72
2022/11/27 08:21:56;;;;;;;51.35;13.28;;;;;;;4.49;97.24;100817.09;1797424;78;21862;-72
2022/11/27 08:24:23;;;;;;;79.32;14.58;;;;;;;4.42;97.64;100823.15;1766228;79;20878;-72
2022/11/27 08:26:51;;;;;;;51.92;13.72;;;;;;;4.44;97.98;100826.16;1798285;79;20917;-72
2022/11/27 08:29:17;;;;;;;58.65;15.63;;;;;;;4.51;98.30;100828.30;1792675;78;20985;-72
2022/11/27 08:31:44;;;;;;;67.70;13.50;;;;;;;4.55;98.21;100818.80;1796739;78;21046;-72
2022/11/27 08:34:10;;;;;;;35.23;13.70;;;;;;;4.62;98.32;100821.34;1799683;79;21431;-72
2022/11/27 08:36:38;;;;;;;41.50;15.03;;;;;;;4.62;97.96;100813.59;1765092;79;20937;-72
2022/11/27 08:39:05;;;;;;;43.38;14.35;;;;;;;4.65;98.12;100812.27;1761208;81;21604;-72
2022/11/27 08:41:34;;;;;;;;;;;;;;;4.74;98.19;100816.97;1793784;78;20898;-73
2022/11/27 08:44:00;;;;;;;40.63;14.20;;;;;;;4.68;97.65;100808.38;1792468;78;21890;-72
2022/11/27 08:46:27;;;;;;;46.37;13.87;;;;;;;4.62;97.50;100823.94;1794511;78;20986;-72
2022/11/27 08:48:58;;;;;;;29.20;13.62;;;;;;;4.64;97.90;100824.77;1787766;79;20902;-72
2022/11/27 08:51:25;;;;;;;29.70;12.80;;;;;;;4.73;98.29;100822.99;1764860;80;21550;-72
2022/11/27 08:53:54;;;;;;;34.00;13.53;;;;;;;4.69;97.79;100823.02;1762435;81;20950;-72
2022/11/27 08:56:24;;;;;;;39.10;13.65;;;;;;;4.68;97.75;100818.72;1789422;79;21041;-72
2022/11/27 08:58:51;;;;;;;23.87;12.98;;;;;;;4.77;98.39;100820.39;1791509;79;20910;-71
2022/11/27 09:01:27;;;;;;;34.95;13.90;;;;;;;4.91;98.76;100820.31;1796955;79;20948;-73
2022/11/27 09:03:54;;;;;;;28.55;13.95;;;;;;;5.04;98.81;100821.95;1791184;79;21871;-72
2022/11/27 09:06:24;;;;;;;23.10;14.00;;;;;;;5.21;98.40;100822.23;1788165;78;21000;-72
2022/11/27 09:08:51;;;;;;;25.88;13.68;;;;;;;5.28;98.32;100823.92;1791347;78;21043;-72
2022/11/27 09:11:19;;;;;;;31.50;13.57;;;;;;;5.31;98.14;100825.19;1793300;78;20958;-72
2022/11/27 09:13:47;;;;;;;38.08;16.05;;;;;;;5.39;98.31;100825.98;1792514;78;22158;-72
2022/11/27 09:16:16;;;;;;;20.48;14.45;;;;;;;5.51;98.44;100825.88;1788967;78;20897;-72
2022/11/27 09:18:45;;;;;;;25.43;15.90;;;;;;;5.63;98.49;100826.22;1780431;79;20968;-72
2022/11/27 09:21:13;;;;;;;29.00;14.18;;;;;;;5.71;98.37;100827.42;1784067;78;21051;-71
2022/11/27 09:23:40;;;;;;;22.35;13.65;;;;;;;5.76;98.23;100837.31;1785281;79;20945;-72
2022/11/27 09:26:11;;;;;;;24.70;13.88;;;;;;;5.77;98.15;100833.84;1792873;78;21474;-71
2022/11/27 09:28:39;;;;;;;23.77;14.60;;;;;;;5.74;97.64;100828.69;1770524;79;20879;-72
2022/11/27 09:31:10;;;;;;;21.48;14.75;;;;;;;5.69;97.55;100829.19;1776529;79;21023;-71
2022/11/27 09:33:40;;;;;;;19.05;13.93;;;;;;;5.75;98.17;100823.94;1780768;79;21125;-71
2022/11/27 09:36:10;;;;;;;18.05;13.53;;;;;;;5.82;98.23;100835.95;1764932;79;20973;-71
2022/11/27 09:38:37;;;;;;;20.15;14.68;;;;;;;5.82;97.92;100822.98;1788394;79;20950;-71
2022/11/27 09:41:19;;;;;;;21.02;15.45;;;;;;;5.83;97.89;100826.02;1790784;79;21483;-71
2022/11/27 09:44:00;;;;;;;25.40;17.00;;;;;;;5.82;97.90;100830.77;1768362;79;20945;-71
2022/11/27 09:46:37;;;;;;;23.18;16.85;;;;;;;6.00;98.50;100829.77;1713512;83;21097;-72
2022/11/27 09:49:09;;;;;;;24.27;16.17;;;;;;;6.16;98.62;100822.66;1693743;83;20954;-73
2022/11/27 09:52:02;;;;;;;25.97;15.35;;;;;;;6.27;98.69;100818.20;1696457;83;20955;-73
2022/11/27 09:54:56;;;;;;;28.07;18.07;;;;;;;6.39;98.21;100818.07;1697990;84;21969;-73
2022/11/27 09:57:34;;;;;;;23.42;17.10;;;;;;;6.49;98.51;100816.20;1685626;84;20938;-74
2022/11/27 10:00:11;;;;;;;19.67;14.65;;;;;;;6.58;98.44;100813.92;1689490;84;21527;-73
2022/11/27 10:02:38;;;;;;;;;;;;;;;6.65;97.87;100811.67;1700710;84;20923;-73
2022/11/27 10:05:20;;;;;;;19.85;14.13;;;;;;;6.63;97.41;100811.68;1685519;83;20100;-73
2022/11/27 10:07:55;;;;;;;18.67;13.75;;;;;;;6.48;96.84;100801.08;1692773;84;21014;-73
2022/11/27 10:10:43;;;;;;;20.57;13.83;;;;;;;6.52;97.10;100804.92;1691496;84;20990;-73
2022/11/27 10:13:31;;;;;;;15.90;11.53;;;;;;;6.61;97.60;100804.38;1673064;84;21065;-73
2022/11/27 10:16:15;;;;;;;16.02;11.97;;;;;;;6.66;97.35;100801.70;1693789;83;21642;-72
2022/11/27 10:18:58;;;;;;;19.67;14.73;;;;;;;6.71;97.55;100799.91;1684682;84;20911;-73
2022/11/27 10:21:42;;;;;;;18.85;14.03;;;;;;;6.89;98.14;100800.95;1696916;83;20959;-72
2022/11/27 10:24:38;;;;;;;18.77;12.85;;;;;;;7.03;98.14;100802.45;1692193;84;20962;-73
2022/11/27 10:27:12;;;;;;;18.67;14.18;;;;;;;7.16;98.28;100793.59;1700475;82;21061;-75
2022/11/27 10:29:43;;;;;;;17.98;13.20;;;;;;;7.22;98.02;100790.89;1695988;82;21090;-75
2022/11/27 10:32:19;;;;;;;15.32;12.03;;;;;;;7.35;98.19;100787.66;1698318;82;21347;-75
2022/11/27 10:34:56;;;;;;;16.95;11.88;;;;;;;7.53;98.26;100788.63;1702169;82;21523;-75
2022/11/27 10:37:37;;;;;;;17.82;12.23;;;;;;;7.65;98.28;100783.67;1678387;84;21040;-75
2022/11/27 10:40:13;;;;;;;15.15;12.05;;;;;;;7.73;98.04;100784.39;1690246;82;21487;-73
2022/11/27 10:43:09;;;;;;;15.20;11.70;;;;;;;7.68;97.35;100779.72;1649466;84;21034;-73
2022/11/27 10:46:13;;;;;;;15.40;12.70;;;;;;;7.66;97.09;100777.58;1704944;83;20952;-73
2022/11/27 10:48:40;;;;;;;17.60;13.70;;;;;;;7.56;96.78;100772.13;1702795;82;20905;-74
2022/11/27 10:51:20;;;;;;;17.17;13.23;;;;;;;7.47;96.76;100778.34;1702410;82;21447;-74
2022/11/27 10:53:51;;;;;;;16.25;12.33;;;;;;;7.47;97.03;100777.49;1686398;83;21133;-73
2022/11/27 10:57:00;;;;;;;19.27;13.05;;;;;;;7.31;96.51;100775.17;1688435;84;20966;-73
2022/11/27 10:59:34;;;;;;;16.95;11.70;;;;;;;7.19;96.57;100776.66;1676087;84;20981;-74
2022/11/27 11:02:04;;;;;;;14.20;10.35;;;;;;;7.07;96.25;100765.19;1779021;80;20902;-75
2022/11/27 11:04:31;;;;;;;15.03;10.53;;;;;;;7.02;96.59;100766.99;1795063;78;21672;-76
2022/11/27 11:06:58;;;;;;;12.30;10.08;;;;;;;7.02;96.85;100756.61;1779325;79;21865;-75
2022/11/27 11:09:34;;;;;;;16.40;12.00;;;;;;;7.02;96.44;100756.61;1784197;78;21024;-76
2022/11/27 11:12:11;;;;;;;12.10;9.25;;;;;;;6.89;96.43;100754.22;1800590;78;21158;-75
2022/11/27 11:14:37;;;;;;;12.23;9.80;;;;;;;6.82;96.18;100752.58;1784188;78;21036;-74
2022/11/27 11:17:16;;;;;;;12.50;9.48;;;;;;;6.71;96.22;100753.19;1764685;79;20922;-74
2022/11/27 11:19:44;;;;;;;22.35;14.15;;;;;;;6.55;95.96;100747.80;1794212;78;21053;-76
2022/11/27 11:22:15;;;;;;;16.45;11.78;;;;;;;6.52;96.43;100749.99;1786502;79;20969;-76
2022/11/27 11:24:49;;;;;;;16.67;12.65;;;;;;;6.54;96.72;100759.06;1781624;78;20870;-75
2022/11/27 11:27:28;;;;;;;18.17;14.30;;;;;;;6.54;96.65;100759.06;1783386;79;20906;-75
2022/11/27 11:30:03;;;;;;;21.27;14.87;;;;;;;6.52;96.73;100755.63;1782447;78;20985;-75
2022/11/27 11:32:34;;;;;;;20.25;14.95;;;;;;;6.41;96.46;100759.25;1787611;79;21015;-74
2022/11/27 11:35:31;;;;;;;21.73;14.75;;;;;;;6.41;96.53;100756.66;1797145;78;20926;-74
2022/11/27 11:37:58;;;;;;;;;;;;;;;6.31;96.27;100765.42;1793304;78;20870;-74
2022/11/27 11:40:32;;;;;;;18.92;13.85;;;;;;;6.17;96.13;100767.34;1790637;78;20736;-74